createdAt,value
2022-07-29T00:00:17.571Z,66.76
2022-07-29T00:01:25.462Z,66.70
2022-07-29T00:02:28.816Z,66.68
2022-07-29T00:04:05.041Z,66.64
2022-07-29T00:05:09.499Z,66.60
2022-07-29T00:06:12.695Z,66.70
2022-07-29T00:07:47.609Z,66.76
2022-07-29T00:08:56.759Z,66.98
2022-07-29T00:10:00.043Z,66.72
2022-07-29T00:11:34.816Z,66.71
2022-07-29T00:12:37.997Z,66.70
2022-07-29T00:13:41.625Z,66.60
2022-07-29T00:15:20.209Z,66.66
2022-07-29T00:16:23.023Z,66.58
2022-07-29T00:17:26.252Z,66.67
2022-07-29T00:19:02.402Z,66.65
2022-07-29T00:20:05.544Z,66.75
2022-07-29T00:21:08.332Z,66.70
2022-07-29T00:22:42.717Z,66.67
2022-07-29T00:23:45.515Z,66.81
2022-07-29T00:24:48.306Z,66.98
2022-07-29T00:26:25.369Z,67.02
2022-07-29T00:27:28.192Z,67.07
2022-07-29T00:28:31.380Z,67.27
2022-07-29T00:30:44.392Z,67.07
2022-07-29T00:31:47.866Z,66.97
2022-07-29T00:32:51.252Z,67.04
2022-07-29T00:34:27.055Z,67.25
2022-07-29T00:35:29.747Z,67.19
2022-07-29T00:36:33.386Z,67.07
2022-07-29T00:38:07.969Z,67.00
2022-07-29T00:39:10.864Z,67.09
2022-07-29T00:40:13.698Z,67.06
2022-07-29T00:41:56.181Z,66.97
2022-07-29T00:42:58.949Z,66.89
2022-07-29T00:44:02.353Z,66.88
2022-07-29T00:45:37.686Z,66.70
2022-07-29T00:46:40.518Z,67.00
2022-07-29T00:47:43.935Z,66.97
2022-07-29T00:49:18.981Z,66.99
2022-07-29T00:50:21.818Z,67.05
2022-07-29T00:51:24.488Z,67.38
2022-07-29T00:53:03.425Z,67.34
2022-07-29T00:54:07.675Z,67.17
2022-07-29T00:55:14.496Z,67.14
2022-07-29T00:56:49.367Z,67.22
2022-07-29T00:57:52.631Z,67.22
2022-07-29T00:58:57.105Z,67.28
2022-07-29T01:00:18.090Z,67.35
2022-07-29T01:01:21.393Z,67.30
2022-07-29T01:02:24.848Z,67.42
2022-07-29T01:03:59.772Z,67.43
2022-07-29T01:05:03.267Z,67.39
2022-07-29T01:06:30.321Z,67.52
2022-07-29T01:08:04.830Z,67.70
2022-07-29T01:09:07.627Z,67.58
2022-07-29T01:10:33.841Z,67.47
2022-07-29T01:12:08.405Z,67.53
2022-07-29T01:13:14.165Z,67.73
2022-07-29T01:14:17.304Z,67.93
2022-07-29T01:15:55.575Z,67.85
2022-07-29T01:16:59.757Z,67.88
2022-07-29T01:18:02.642Z,67.88
2022-07-29T01:19:43.028Z,67.74
2022-07-29T01:20:46.075Z,67.87
2022-07-29T01:21:49.802Z,67.94
2022-07-29T01:23:24.294Z,68.15
2022-07-29T01:24:27.185Z,68.02
2022-07-29T01:25:29.999Z,68.01
2022-07-29T01:27:15.736Z,68.00
2022-07-29T01:28:23.501Z,67.93
2022-07-29T01:29:42.177Z,67.97
2022-07-29T01:31:32.074Z,67.91
2022-07-29T01:33:15.305Z,67.80
2022-07-29T01:34:19.423Z,67.72
2022-07-29T01:35:53.961Z,67.70
2022-07-29T01:36:56.710Z,67.67
2022-07-29T01:37:59.407Z,67.70
2022-07-29T01:39:39.099Z,67.67
2022-07-29T01:40:41.935Z,67.73
2022-07-29T01:41:45.729Z,67.79
2022-07-29T01:43:20.088Z,67.88
2022-07-29T01:44:23.793Z,68.08
2022-07-29T01:45:26.450Z,68.21
2022-07-29T01:47:01.533Z,68.08
2022-07-29T01:48:04.299Z,68.26
2022-07-29T01:49:07.212Z,68.25
2022-07-29T01:50:42.327Z,68.23
2022-07-29T01:51:44.909Z,68.45
2022-07-29T01:52:47.793Z,68.33
2022-07-29T01:54:29.695Z,68.59
2022-07-29T01:55:32.937Z,68.58
2022-07-29T01:56:39.508Z,68.62
2022-07-29T01:58:14.039Z,68.69
2022-07-29T01:59:17.131Z,68.69
2022-07-29T02:00:17.689Z,68.57
2022-07-29T02:01:24.325Z,68.44
2022-07-29T02:02:27.505Z,68.56
2022-07-29T02:04:01.909Z,68.54
2022-07-29T02:05:22.041Z,68.46
2022-07-29T02:06:25.016Z,68.39
2022-07-29T02:07:59.550Z,68.35
2022-07-29T02:09:02.397Z,68.68
2022-07-29T02:10:05.869Z,68.49
2022-07-29T02:11:43.926Z,68.52
2022-07-29T02:12:50.882Z,68.49
2022-07-29T02:13:53.847Z,68.53
2022-07-29T02:15:28.973Z,68.84
2022-07-29T02:16:32.486Z,68.91
2022-07-29T02:17:35.275Z,68.77
2022-07-29T02:19:13.293Z,68.90
2022-07-29T02:20:16.267Z,68.84
2022-07-29T02:21:21.148Z,68.81
2022-07-29T02:22:55.542Z,68.85
2022-07-29T02:23:58.162Z,68.96
2022-07-29T02:25:01.363Z,68.84
2022-07-29T02:26:57.231Z,68.76
2022-07-29T02:27:59.874Z,68.59
2022-07-29T02:29:02.492Z,68.55
2022-07-29T02:30:36.962Z,68.66
2022-07-29T02:31:40.722Z,68.73
2022-07-29T02:32:47.021Z,68.83
2022-07-29T02:34:25.693Z,68.72
2022-07-29T02:35:28.328Z,68.80
2022-07-29T02:36:37.413Z,68.82
2022-07-29T02:38:12.914Z,68.85
2022-07-29T02:39:16.474Z,68.79
2022-07-29T02:40:19.115Z,68.79
2022-07-29T02:41:54.186Z,68.64
2022-07-29T02:42:56.813Z,68.54
2022-07-29T02:43:59.494Z,68.66
2022-07-29T02:45:35.062Z,68.75
2022-07-29T02:46:43.681Z,68.85
2022-07-29T02:47:47.767Z,68.89
2022-07-29T02:49:22.756Z,68.81
2022-07-29T02:50:25.496Z,68.85
2022-07-29T02:51:49.965Z,69.10
2022-07-29T02:53:24.558Z,69.01
2022-07-29T02:54:27.263Z,68.98
2022-07-29T02:55:29.937Z,69.06
2022-07-29T02:57:05.920Z,69.03
2022-07-29T02:58:08.645Z,69.38
2022-07-29T02:59:11.366Z,69.19
2022-07-29T03:00:18.266Z,69.06
2022-07-29T03:01:27.444Z,69.12
2022-07-29T03:02:30.520Z,69.25
2022-07-29T03:04:06.586Z,69.26
2022-07-29T03:05:10.891Z,69.37
2022-07-29T03:06:38.356Z,69.26
2022-07-29T03:08:13.602Z,69.30
2022-07-29T03:09:19.290Z,69.29
2022-07-29T03:10:22.063Z,69.60
2022-07-29T03:11:56.789Z,69.21
2022-07-29T03:12:59.563Z,69.47
2022-07-29T03:14:02.433Z,69.73
2022-07-29T03:15:39.353Z,69.61
2022-07-29T03:16:46.930Z,69.51
2022-07-29T03:17:49.618Z,69.82
2022-07-29T03:19:24.142Z,69.77
2022-07-29T03:20:27.015Z,69.68
2022-07-29T03:21:29.925Z,69.55
2022-07-29T03:23:05.272Z,69.52
2022-07-29T03:24:17.042Z,69.58
2022-07-29T03:25:20.081Z,69.70
2022-07-29T03:26:54.746Z,69.50
2022-07-29T03:27:57.522Z,69.42
2022-07-29T03:29:02.538Z,69.60
2022-07-29T03:31:02.585Z,69.22
2022-07-29T03:32:09.166Z,69.22
2022-07-29T03:33:19.437Z,69.15
2022-07-29T03:34:54.409Z,69.14
2022-07-29T03:35:57.323Z,69.09
2022-07-29T03:36:59.975Z,69.05
2022-07-29T03:38:35.055Z,69.22
2022-07-29T03:39:38.023Z,69.23
2022-07-29T03:40:40.735Z,69.38
2022-07-29T03:42:15.483Z,69.32
2022-07-29T03:43:24.007Z,69.34
2022-07-29T03:44:35.919Z,69.28
2022-07-29T03:46:14.369Z,69.42
2022-07-29T03:47:17.444Z,69.56
2022-07-29T03:48:52.952Z,69.67
2022-07-29T03:50:28.119Z,69.47
2022-07-29T03:51:40.040Z,69.47
2022-07-29T03:52:42.842Z,69.30
2022-07-29T03:54:20.872Z,69.34
2022-07-29T03:55:23.999Z,69.21
2022-07-29T03:56:26.717Z,69.34
2022-07-29T03:58:03.289Z,69.29
2022-07-29T03:59:06.111Z,69.28
2022-07-29T04:00:18.106Z,69.32
2022-07-29T04:01:20.867Z,69.29
2022-07-29T04:02:30.797Z,69.19
2022-07-29T04:04:08.075Z,69.28
2022-07-29T04:05:47.504Z,69.27
2022-07-29T04:06:51.366Z,69.33
2022-07-29T04:07:54.119Z,69.33
2022-07-29T04:09:29.203Z,69.49
2022-07-29T04:10:37.752Z,69.47
2022-07-29T04:12:09.593Z,69.43
2022-07-29T04:13:44.355Z,69.56
2022-07-29T04:14:47.286Z,69.83
2022-07-29T04:15:50.423Z,70.03
2022-07-29T04:17:26.034Z,70.19
2022-07-29T04:18:29.662Z,70.34
2022-07-29T04:19:34.071Z,70.40
2022-07-29T04:21:08.798Z,70.33
2022-07-29T04:22:11.714Z,70.30
2022-07-29T04:23:14.710Z,70.26
2022-07-29T04:25:10.124Z,70.55
2022-07-29T04:26:14.331Z,70.34
2022-07-29T04:27:17.099Z,70.24
2022-07-29T04:28:51.946Z,70.28
2022-07-29T04:30:03.238Z,70.23
2022-07-29T04:31:06.544Z,70.22
2022-07-29T04:32:49.378Z,70.21
2022-07-29T04:33:52.132Z,70.19
2022-07-29T04:34:55.486Z,70.38
2022-07-29T04:36:43.626Z,70.15
2022-07-29T04:37:46.767Z,70.24
2022-07-29T04:38:57.689Z,70.27
2022-07-29T04:40:44.357Z,70.38
2022-07-29T04:41:48.574Z,70.32
2022-07-29T04:42:55.185Z,70.24
2022-07-29T04:44:43.184Z,70.17
2022-07-29T04:45:48.108Z,70.21
2022-07-29T04:46:51.397Z,69.99
2022-07-29T04:48:34.040Z,70.08
2022-07-29T04:49:37.847Z,70.01
2022-07-29T04:50:40.760Z,70.21
2022-07-29T04:52:15.864Z,70.37
2022-07-29T04:53:18.845Z,70.57
2022-07-29T04:54:22.388Z,70.91
2022-07-29T04:55:56.908Z,70.79
2022-07-29T04:56:59.944Z,70.87
2022-07-29T04:58:04.368Z,70.98
2022-07-29T04:59:39.155Z,71.17
2022-07-29T05:00:18.048Z,71.24
2022-07-29T05:01:25.853Z,71.06
2022-07-29T05:02:29.795Z,70.96
2022-07-29T05:04:06.940Z,70.99
2022-07-29T05:05:11.203Z,71.23
2022-07-29T05:06:14.029Z,71.23
2022-07-29T05:07:49.158Z,72.81
2022-07-29T05:08:51.847Z,74.12
2022-07-29T05:09:54.807Z,74.66
2022-07-29T05:11:35.635Z,75.75
2022-07-29T05:12:38.823Z,76.24
2022-07-29T05:13:52.677Z,75.81
2022-07-29T05:15:28.167Z,76.45
2022-07-29T05:16:31.454Z,76.67
2022-07-29T05:17:34.300Z,77.43
2022-07-29T05:19:19.439Z,77.32
2022-07-29T05:20:25.830Z,77.48
2022-07-29T05:21:30.394Z,77.68
2022-07-29T05:23:05.107Z,78.06
2022-07-29T05:24:08.050Z,78.35
2022-07-29T05:25:15.014Z,79.06
2022-07-29T05:27:08.079Z,78.41
2022-07-29T05:28:10.825Z,78.81
2022-07-29T05:29:50.694Z,78.49
2022-07-29T05:31:25.876Z,78.30
2022-07-29T05:32:28.835Z,78.39
2022-07-29T05:33:42.583Z,78.62
2022-07-29T05:35:30.567Z,78.57
2022-07-29T05:36:39.164Z,78.89
2022-07-29T05:37:42.038Z,78.47
2022-07-29T05:39:16.868Z,78.82
2022-07-29T05:40:49.294Z,79.08
2022-07-29T05:41:57.682Z,79.13
2022-07-29T05:43:32.666Z,78.34
2022-07-29T05:44:35.531Z,78.69
2022-07-29T05:45:49.897Z,78.17
2022-07-29T05:47:26.178Z,78.84
2022-07-29T05:48:29.294Z,79.14
2022-07-29T05:49:33.326Z,78.93
2022-07-29T05:51:07.873Z,78.43
2022-07-29T05:52:10.776Z,78.07
2022-07-29T05:53:26.218Z,77.79
2022-07-29T05:55:01.592Z,78.04
2022-07-29T05:56:04.504Z,78.33
2022-07-29T05:57:07.288Z,78.06
2022-07-29T05:58:42.208Z,77.44
2022-07-29T05:59:58.314Z,77.81
2022-07-29T06:00:17.810Z,77.81
2022-07-29T06:01:21.440Z,77.67
2022-07-29T06:02:25.397Z,78.33
2022-07-29T06:04:01.140Z,78.23
2022-07-29T06:05:05.682Z,77.16
2022-07-29T06:06:14.743Z,78.85
2022-07-29T06:07:57.279Z,79.09
2022-07-29T06:09:00.273Z,79.15
2022-07-29T06:10:16.847Z,79.53
2022-07-29T06:11:55.992Z,79.32
2022-07-29T06:12:58.959Z,79.17
2022-07-29T06:14:01.982Z,78.48
2022-07-29T06:15:41.950Z,78.16
2022-07-29T06:16:45.827Z,78.44
2022-07-29T06:18:06.675Z,79.07
2022-07-29T06:19:41.463Z,79.78
2022-07-29T06:20:44.518Z,79.60
2022-07-29T06:21:47.818Z,80.03
2022-07-29T06:23:22.668Z,77.88
2022-07-29T06:24:26.064Z,77.25
2022-07-29T06:25:28.986Z,76.99
2022-07-29T06:27:11.906Z,76.48
2022-07-29T06:28:16.186Z,75.87
2022-07-29T06:29:19.112Z,76.31
2022-07-29T06:30:54.315Z,76.50
2022-07-29T06:31:57.746Z,76.74
2022-07-29T06:33:03.498Z,76.29
2022-07-29T06:34:41.482Z,76.32
2022-07-29T06:36:35.716Z,76.11
2022-07-29T06:37:42.694Z,76.13
2022-07-29T06:40:04.878Z,75.43
2022-07-29T06:41:07.766Z,75.64
2022-07-29T06:42:10.541Z,75.27
2022-07-29T06:44:00.029Z,74.93
2022-07-29T06:45:09.016Z,75.25
2022-07-29T06:46:14.566Z,75.07
2022-07-29T06:47:52.372Z,75.47
2022-07-29T06:48:55.701Z,75.28
2022-07-29T06:49:59.133Z,75.15
2022-07-29T06:51:37.176Z,75.14
2022-07-29T06:52:40.136Z,75.75
2022-07-29T06:54:00.582Z,75.34
2022-07-29T06:55:38.616Z,75.18
2022-07-29T06:56:45.254Z,74.98
2022-07-29T06:57:48.070Z,74.22
2022-07-29T06:59:36.530Z,74.05
2022-07-29T07:00:18.242Z,73.84
2022-07-29T07:01:21.338Z,74.08
2022-07-29T07:02:25.667Z,74.40
2022-07-29T07:04:01.150Z,74.46
2022-07-29T07:05:04.799Z,73.96
2022-07-29T07:06:13.249Z,73.74
2022-07-29T07:07:50.189Z,74.15
2022-07-29T07:08:53.023Z,73.35
2022-07-29T07:09:56.040Z,73.68
2022-07-29T07:11:31.006Z,73.18
2022-07-29T07:12:36.303Z,73.67
2022-07-29T07:13:42.368Z,74.86
2022-07-29T07:15:22.068Z,74.27
2022-07-29T07:16:36.957Z,73.96
2022-07-29T07:17:44.588Z,73.64
2022-07-29T07:19:19.851Z,74.11
2022-07-29T07:20:22.716Z,73.88
2022-07-29T07:21:30.294Z,74.02
2022-07-29T07:23:07.949Z,73.77
2022-07-29T07:24:10.917Z,74.24
2022-07-29T07:25:14.691Z,74.23
2022-07-29T07:26:51.290Z,73.11
2022-07-29T07:27:54.180Z,73.09
2022-07-29T07:28:57.020Z,71.83
2022-07-29T07:30:35.798Z,73.07
2022-07-29T07:31:39.208Z,73.64
2022-07-29T07:32:47.420Z,73.38
2022-07-29T07:34:34.043Z,73.50
2022-07-29T07:35:36.765Z,73.08
2022-07-29T07:36:39.587Z,72.62
2022-07-29T07:38:15.909Z,73.08
2022-07-29T07:39:18.590Z,72.85
2022-07-29T07:40:24.577Z,72.14
2022-07-29T07:41:59.472Z,72.01
2022-07-29T07:43:02.161Z,72.18
2022-07-29T07:44:05.130Z,72.46
2022-07-29T07:46:10.077Z,71.61
2022-07-29T07:47:17.894Z,72.34
2022-07-29T07:48:21.305Z,72.87
2022-07-29T07:49:56.302Z,73.12
2022-07-29T07:51:04.871Z,72.00
2022-07-29T07:52:07.806Z,71.84
2022-07-29T07:53:42.649Z,72.64
2022-07-29T07:54:48.657Z,70.21
2022-07-29T07:56:13.464Z,70.33
2022-07-29T07:57:53.218Z,71.31
2022-07-29T07:58:56.178Z,71.59
2022-07-29T07:59:59.189Z,70.75
2022-07-29T08:00:17.857Z,70.42
2022-07-29T08:01:21.340Z,71.02
2022-07-29T08:02:48.596Z,71.03
2022-07-29T08:04:35.560Z,71.37
2022-07-29T08:05:39.416Z,70.82
2022-07-29T08:06:42.237Z,71.32
2022-07-29T08:08:18.556Z,71.43
2022-07-29T08:09:35.184Z,71.03
2022-07-29T08:10:38.140Z,70.57
2022-07-29T08:12:32.992Z,70.60
2022-07-29T08:13:36.074Z,70.84
2022-07-29T08:14:39.076Z,70.97
2022-07-29T08:16:14.660Z,71.17
2022-07-29T08:17:17.913Z,70.87
2022-07-29T08:18:21.662Z,70.62
2022-07-29T08:19:56.328Z,69.57
2022-07-29T08:21:00.381Z,69.71
2022-07-29T08:22:06.969Z,69.60
2022-07-29T08:23:59.905Z,69.39
2022-07-29T08:25:04.973Z,68.31
2022-07-29T08:26:09.480Z,68.99
2022-07-29T08:27:49.937Z,69.06
2022-07-29T08:28:53.033Z,69.43
2022-07-29T08:30:00.581Z,69.29
2022-07-29T08:31:35.763Z,69.63
2022-07-29T08:32:54.086Z,69.57
2022-07-29T08:33:58.207Z,69.67
2022-07-29T08:35:42.299Z,68.79
2022-07-29T08:36:45.092Z,68.36
2022-07-29T08:37:53.721Z,69.25
2022-07-29T08:39:28.881Z,68.91
2022-07-29T08:40:38.102Z,68.87
2022-07-29T08:41:43.593Z,67.37
2022-07-29T08:43:32.588Z,67.95
2022-07-29T08:44:37.008Z,68.49
2022-07-29T08:45:40.068Z,69.02
2022-07-29T08:47:22.361Z,69.05
2022-07-29T08:48:25.138Z,68.44
2022-07-29T08:49:28.605Z,68.21
2022-07-29T08:51:04.458Z,67.98
2022-07-29T08:52:07.951Z,67.79
2022-07-29T08:53:10.960Z,68.01
2022-07-29T08:54:45.814Z,67.77
2022-07-29T08:55:48.709Z,67.54
2022-07-29T08:56:52.419Z,67.00
2022-07-29T08:58:44.247Z,66.82
2022-07-29T09:00:17.946Z,66.78
2022-07-29T09:01:35.911Z,66.96
2022-07-29T09:02:52.368Z,67.19
2022-07-29T09:04:27.637Z,66.78
2022-07-29T09:05:30.488Z,67.02
2022-07-29T09:06:39.904Z,66.69
2022-07-29T09:08:20.973Z,65.58
2022-07-29T09:09:24.355Z,66.26
2022-07-29T09:10:27.253Z,65.90
2022-07-29T09:12:02.960Z,67.03
2022-07-29T09:13:24.275Z,67.62
2022-07-29T09:14:28.813Z,67.79
2022-07-29T09:16:07.076Z,68.22
2022-07-29T09:17:48.250Z,67.56
2022-07-29T09:19:11.584Z,66.61
2022-07-29T09:20:46.421Z,66.32
2022-07-29T09:21:49.233Z,66.04
2022-07-29T09:22:55.304Z,65.65
2022-07-29T09:24:41.747Z,65.66
2022-07-29T09:25:44.517Z,65.49
2022-07-29T09:26:47.249Z,64.99
2022-07-29T09:28:22.433Z,65.73
2022-07-29T09:29:25.353Z,65.84
2022-07-29T09:30:37.624Z,66.31
2022-07-29T09:32:12.679Z,66.09
2022-07-29T09:33:15.668Z,65.79
2022-07-29T09:34:18.536Z,65.12
2022-07-29T09:36:02.973Z,65.57
2022-07-29T09:37:07.073Z,66.33
2022-07-29T09:38:09.766Z,66.37
2022-07-29T09:39:44.787Z,65.96
2022-07-29T09:40:52.558Z,65.86
2022-07-29T09:42:01.784Z,65.82
2022-07-29T09:43:37.952Z,65.95
2022-07-29T09:44:40.752Z,66.44
2022-07-29T09:45:43.798Z,66.33
2022-07-29T09:47:25.209Z,66.70
2022-07-29T09:48:28.111Z,66.69
2022-07-29T09:49:31.142Z,66.49
2022-07-29T09:51:06.822Z,65.73
2022-07-29T09:52:30.245Z,66.12
2022-07-29T09:53:33.310Z,66.09
2022-07-29T09:55:17.942Z,65.85
2022-07-29T09:56:22.062Z,65.74
2022-07-29T09:57:30.355Z,66.23
2022-07-29T09:59:05.569Z,65.49
2022-07-29T10:00:18.249Z,65.46
2022-07-29T10:01:21.802Z,65.75
2022-07-29T10:02:29.593Z,64.66
2022-07-29T10:04:05.311Z,64.93
2022-07-29T10:05:08.639Z,64.93
2022-07-29T10:06:17.625Z,65.18
2022-07-29T10:08:00.070Z,65.65
2022-07-29T10:09:02.860Z,65.82
2022-07-29T10:10:08.531Z,65.80
2022-07-29T10:12:02.032Z,65.91
2022-07-29T10:13:15.757Z,64.61
2022-07-29T10:14:19.581Z,64.78
2022-07-29T10:15:54.679Z,64.77
2022-07-29T10:17:00.160Z,64.86
2022-07-29T10:18:03.022Z,65.18
2022-07-29T10:19:38.768Z,65.98
2022-07-29T10:20:41.697Z,66.02
2022-07-29T10:21:44.658Z,65.44
2022-07-29T10:23:52.995Z,65.18
2022-07-29T10:25:06.727Z,65.50
2022-07-29T10:26:09.465Z,65.36
2022-07-29T10:27:44.403Z,64.90
2022-07-29T10:28:48.727Z,65.11
2022-07-29T10:29:53.405Z,64.71
2022-07-29T10:31:28.322Z,64.78
2022-07-29T10:32:31.892Z,64.17
2022-07-29T10:33:40.158Z,64.03
2022-07-29T10:35:15.309Z,64.17
2022-07-29T10:36:19.919Z,63.76
2022-07-29T10:37:26.261Z,63.96
2022-07-29T10:39:12.962Z,63.10
2022-07-29T10:40:37.515Z,63.38
2022-07-29T10:41:50.249Z,62.10
2022-07-29T10:43:35.647Z,62.23
2022-07-29T10:44:46.336Z,62.23
2022-07-29T10:45:55.851Z,62.48
2022-07-29T11:00:22.411Z,62.47
2022-07-29T11:01:46.405Z,62.57
2022-07-29T11:03:38.951Z,63.37
2022-07-29T11:05:21.886Z,63.39
2022-07-29T11:06:49.289Z,63.86
2022-07-29T11:07:57.720Z,63.62
2022-07-29T11:09:50.722Z,63.48
2022-07-29T11:10:54.608Z,62.70
2022-07-29T11:12:00.197Z,61.49
2022-07-29T11:13:41.778Z,59.55
2022-07-29T11:14:51.071Z,60.43
2022-07-29T11:15:55.323Z,60.66
2022-07-29T12:07:08.773Z,52.56
2022-07-29T12:08:28.983Z,51.77
2022-07-29T12:09:45.799Z,50.59
2022-07-29T12:11:35.902Z,46.82
2022-07-29T12:12:46.183Z,46.34
2022-07-29T12:13:50.717Z,48.62
2022-07-29T12:15:39.185Z,47.38
2022-07-29T12:16:55.540Z,47.72
2022-07-29T12:18:03.893Z,46.88
2022-07-29T12:19:43.521Z,46.82
2022-07-29T12:20:50.471Z,47.78
2022-07-29T12:22:05.483Z,47.02
2022-07-29T12:23:43.137Z,49.27
2022-07-29T12:25:23.216Z,47.04
2022-07-29T12:26:40.345Z,46.95
2022-07-29T12:28:33.502Z,47.08
2022-07-29T12:29:47.965Z,47.18
2022-07-29T12:30:58.029Z,46.93
2022-07-29T12:33:11.331Z,46.90
2022-07-29T12:34:15.518Z,47.90
2022-07-29T12:35:18.323Z,47.65
2022-07-29T12:37:04.114Z,47.61
2022-07-29T12:38:27.784Z,46.47
2022-07-29T12:39:34.200Z,47.29
2022-07-29T12:41:10.368Z,47.74
2022-07-29T12:42:19.375Z,47.04
2022-07-29T12:43:22.172Z,44.74
2022-07-29T12:44:56.725Z,44.96
2022-07-29T12:45:59.471Z,46.04
2022-07-29T12:47:03.138Z,44.61
2022-07-29T12:48:37.742Z,44.21
2022-07-29T12:49:44.620Z,43.82
2022-07-29T12:50:47.417Z,44.02
2022-07-29T12:52:22.255Z,44.88
2022-07-29T12:53:25.374Z,45.76
2022-07-29T12:54:31.050Z,44.96
2022-07-29T12:56:20.812Z,44.92
2022-07-29T12:57:41.011Z,44.08
2022-07-29T12:58:49.433Z,42.60
2022-07-29T13:00:18.068Z,43.42
2022-07-29T13:01:23.399Z,42.86
2022-07-29T13:02:26.461Z,43.18
2022-07-29T13:04:05.629Z,41.23
2022-07-29T13:05:08.429Z,41.84
2022-07-29T13:06:11.739Z,42.84
2022-07-29T13:08:03.130Z,43.79
2022-07-29T13:09:19.587Z,42.12
2022-07-29T13:10:24.609Z,42.70
2022-07-29T13:12:00.028Z,42.56
2022-07-29T13:13:02.890Z,43.12
2022-07-29T13:14:12.949Z,41.66
2022-07-29T13:15:47.679Z,41.60
2022-07-29T13:16:50.538Z,40.29
2022-07-29T13:17:53.837Z,42.52
2022-07-29T13:19:32.024Z,43.54
2022-07-29T13:20:34.858Z,42.95
2022-07-29T13:21:38.181Z,41.45
2022-07-29T13:23:13.652Z,41.95
2022-07-29T13:24:25.421Z,43.01
2022-07-29T13:25:28.279Z,41.31
2022-07-29T13:27:05.512Z,40.63
2022-07-29T13:28:08.729Z,40.83
2022-07-29T13:29:11.694Z,42.85
2022-07-29T13:30:50.485Z,40.87
2022-07-29T13:31:53.693Z,41.02
2022-07-29T13:32:57.276Z,40.37
2022-07-29T13:34:33.420Z,41.25
2022-07-29T13:35:40.032Z,40.39
2022-07-29T13:36:47.277Z,40.89
2022-07-29T13:38:22.116Z,40.88
2022-07-29T13:39:33.817Z,39.74
2022-07-29T13:40:45.022Z,40.09
2022-07-29T13:42:20.132Z,42.83
2022-07-29T13:43:22.776Z,43.39
2022-07-29T13:44:30.504Z,42.33
2022-07-29T13:46:09.601Z,39.93
2022-07-29T13:47:12.782Z,41.26
2022-07-29T13:48:30.125Z,40.85
2022-07-29T13:50:06.474Z,41.31
2022-07-29T13:51:10.248Z,41.78
2022-07-29T13:52:13.059Z,40.76
2022-07-29T13:53:47.580Z,41.22
2022-07-29T13:54:50.341Z,41.40
2022-07-29T13:55:54.088Z,41.99
2022-07-29T13:57:29.003Z,41.33
2022-07-29T13:58:31.909Z,40.27
2022-07-29T13:59:34.799Z,41.09
2022-07-29T14:00:17.477Z,40.46
2022-07-29T14:01:20.495Z,41.85
2022-07-29T14:02:25.737Z,41.30
2022-07-29T14:04:01.665Z,40.52
2022-07-29T14:05:08.243Z,41.74
2022-07-29T14:06:11.508Z,40.62
2022-07-29T14:07:50.335Z,41.47
2022-07-29T14:08:53.092Z,40.76
2022-07-29T14:09:55.781Z,39.85
2022-07-29T14:11:37.345Z,40.79
2022-07-29T14:12:40.696Z,39.34
2022-07-29T14:13:43.641Z,39.56
2022-07-29T14:15:18.337Z,39.76
2022-07-29T14:16:25.437Z,39.76
2022-07-29T14:17:38.633Z,39.20
2022-07-29T14:19:14.176Z,39.38
2022-07-29T14:20:17.095Z,39.55
2022-07-29T14:21:20.212Z,39.23
2022-07-29T14:22:59.036Z,40.69
2022-07-29T14:24:17.914Z,40.29
2022-07-29T14:25:30.609Z,40.18
2022-07-29T14:27:16.313Z,39.60
2022-07-29T14:28:41.829Z,40.63
2022-07-29T14:29:44.881Z,40.18
2022-07-29T14:31:19.379Z,40.02
2022-07-29T14:32:22.867Z,39.44
2022-07-29T14:33:25.606Z,38.51
2022-07-29T14:35:04.762Z,37.79
2022-07-29T14:36:07.498Z,38.95
2022-07-29T14:37:16.087Z,39.59
2022-07-29T14:38:58.107Z,38.62
2022-07-29T14:40:00.846Z,38.78
2022-07-29T14:41:03.588Z,37.71
2022-07-29T14:42:38.716Z,37.69
2022-07-29T14:43:41.355Z,38.48
2022-07-29T14:44:44.689Z,37.48
2022-07-29T14:46:20.573Z,37.74
2022-07-29T14:47:28.991Z,38.82
2022-07-29T14:48:36.788Z,38.65
2022-07-29T14:50:11.876Z,39.30
2022-07-29T14:51:23.678Z,39.85
2022-07-29T14:52:36.773Z,40.05
2022-07-29T14:54:12.593Z,39.60
2022-07-29T14:55:25.611Z,39.17
2022-07-29T14:56:46.617Z,39.67
2022-07-29T14:58:22.422Z,38.56
2022-07-29T14:59:37.707Z,40.44
2022-07-29T15:00:18.293Z,41.14
2022-07-29T15:01:21.139Z,40.29
2022-07-29T15:02:39.990Z,40.55
2022-07-29T15:04:51.412Z,40.71
2022-07-29T15:05:54.057Z,39.64
2022-07-29T15:06:56.791Z,39.00
2022-07-29T15:08:31.266Z,38.61
2022-07-29T15:09:33.965Z,38.78
2022-07-29T15:10:55.947Z,40.61
2022-07-29T15:12:30.607Z,40.75
2022-07-29T15:13:34.340Z,39.15
2022-07-29T15:14:37.089Z,39.83
2022-07-29T15:16:11.669Z,39.43
2022-07-29T15:17:15.742Z,39.35
2022-07-29T15:18:25.619Z,38.73
2022-07-29T15:20:00.929Z,38.62
2022-07-29T15:21:03.644Z,38.43
2022-07-29T15:22:07.288Z,38.36
2022-07-29T15:23:41.830Z,40.26
2022-07-29T15:24:44.631Z,40.39
2022-07-29T15:25:47.266Z,39.95
2022-07-29T15:27:21.739Z,39.04
2022-07-29T15:28:33.243Z,39.86
2022-07-29T15:29:35.928Z,39.93
2022-07-29T15:31:25.676Z,39.49
2022-07-29T15:32:29.015Z,38.50
2022-07-29T15:33:36.470Z,39.27
2022-07-29T15:35:20.587Z,38.48
2022-07-29T15:36:57.388Z,39.37
2022-07-29T15:38:00.146Z,38.38
2022-07-29T15:39:41.281Z,38.41
2022-07-29T15:40:48.720Z,37.88
2022-07-29T15:41:51.386Z,37.94
2022-07-29T15:43:32.154Z,38.48
2022-07-29T15:44:34.959Z,38.58
2022-07-29T15:45:40.967Z,38.71
2022-07-29T15:47:16.386Z,39.08
2022-07-29T15:48:23.895Z,39.13
2022-07-29T15:49:29.325Z,38.90
2022-07-29T15:51:27.590Z,38.47
2022-07-29T15:52:32.184Z,38.68
2022-07-29T15:53:40.914Z,39.56
2022-07-29T15:55:23.709Z,37.27
2022-07-29T15:56:31.078Z,38.50
2022-07-29T15:57:33.735Z,37.60
2022-07-29T15:59:22.312Z,38.34
2022-07-29T16:00:17.695Z,38.68
2022-07-29T16:01:21.258Z,39.10
2022-07-29T16:02:28.504Z,39.46
2022-07-29T16:04:03.355Z,39.69
2022-07-29T16:05:47.258Z,40.41
2022-07-29T16:06:50.414Z,39.43
2022-07-29T16:07:54.825Z,39.14
2022-07-29T16:09:29.341Z,38.09
2022-07-29T16:10:39.035Z,38.25
2022-07-29T16:11:41.842Z,39.10
2022-07-29T16:13:27.738Z,38.89
2022-07-29T16:14:34.240Z,38.01
2022-07-29T16:15:37.764Z,39.01
2022-07-29T16:17:28.374Z,38.28
2022-07-29T16:18:36.067Z,38.58
2022-07-29T16:19:38.693Z,39.13
2022-07-29T16:21:14.614Z,37.93
2022-07-29T16:22:17.324Z,38.03
2022-07-29T16:23:20.219Z,39.12
2022-07-29T16:24:55.092Z,39.46
2022-07-29T16:26:06.600Z,39.84
2022-07-29T16:27:11.558Z,39.02
2022-07-29T16:28:57.418Z,38.89
2022-07-29T16:30:00.169Z,39.65
2022-07-29T16:31:04.591Z,38.92
2022-07-29T16:32:40.241Z,39.24
2022-07-29T16:34:01.385Z,40.28
2022-07-29T16:35:04.093Z,39.82
2022-07-29T16:36:53.849Z,39.71
2022-07-29T16:37:57.480Z,39.30
2022-07-29T16:39:00.197Z,38.82
2022-07-29T16:40:34.956Z,37.92
2022-07-29T16:41:37.683Z,37.74
2022-07-29T16:42:52.750Z,39.06
2022-07-29T16:44:30.757Z,38.38
2022-07-29T16:45:51.918Z,38.53
2022-07-29T16:47:06.948Z,38.60
2022-07-29T16:48:48.472Z,38.98
2022-07-29T16:49:58.903Z,38.86
2022-07-29T16:51:01.534Z,39.46
2022-07-29T16:52:39.441Z,39.84
2022-07-29T16:53:42.037Z,40.46
2022-07-29T16:54:47.845Z,40.93
2022-07-29T16:56:23.191Z,41.74
2022-07-29T16:57:26.214Z,40.38
2022-07-29T16:58:28.909Z,40.51
2022-07-29T17:00:18.009Z,40.46
2022-07-29T17:01:21.461Z,40.25
2022-07-29T17:02:25.075Z,40.49
2022-07-29T17:04:05.486Z,40.57
2022-07-29T17:05:09.020Z,40.88
2022-07-29T17:06:35.404Z,41.33
2022-07-29T17:08:10.264Z,41.13
2022-07-29T17:09:13.161Z,40.18
2022-07-29T17:10:16.122Z,40.29
2022-07-29T17:11:59.714Z,41.07
2022-07-29T17:13:03.416Z,41.26
2022-07-29T17:14:07.197Z,40.78
2022-07-29T17:15:47.469Z,41.54
2022-07-29T17:17:13.766Z,41.10
2022-07-29T17:18:59.054Z,41.92
2022-07-29T17:20:34.953Z,42.13
2022-07-29T17:21:37.662Z,42.33
2022-07-29T17:23:10.522Z,41.16
2022-07-29T17:24:46.719Z,40.42
2022-07-29T17:25:50.175Z,41.31
2022-07-29T17:26:52.876Z,40.33
2022-07-29T17:28:28.134Z,41.74
2022-07-29T17:29:30.927Z,41.17
2022-07-29T17:30:33.985Z,40.95
2022-07-29T17:32:13.472Z,42.15
2022-07-29T17:33:16.143Z,41.65
2022-07-29T17:34:18.824Z,41.42
2022-07-29T17:35:53.720Z,42.11
2022-07-29T17:36:56.707Z,40.87